Airfield :
LOGIN :

Register | Disclaimer

   EN    FR    IT 

 










Legend :    VFR   Marginal VFR   IFR   Intensive IFR   Very Intensive IFR
Visi :
Ceiling :
>= 8 km
>= 3000ft
5 to 8 km
1000 to 3000 ft
1500m to 5 km
500 to 1000 ft
800 to 1500m
200 to 500 ft
< 800m
< 200 ft
Symbols :   Thunderstorms  Fog  Heavy snow  Heavy precipitations  Wind > 20 kt
SIGMETs :     Misc.  Thunderstorms  Icing  Turbulence  Mountain Waves  Volcanic Ashes






- Airport Elevation : 6 ft
- IATA code : CFU


LGKR - Corfu Kerkyra

CURRENT METAR :
  • 110620Z 09013G24KT 9999 SCT018TCU BKN030 BKN080 13/10 Q1004 NOSIG

EXPIRED METARs :
  • 110550Z 09012KT 9999 SCT018TCU BKN030 BKN080 13/10 Q1004 NOSIG
  • 110520Z 09012KT 9999 SCT014TCU BKN030 OVC080 12/10 Q1004 NOSIG
  • 110450Z 08008KT 9999 SCT014TCU BKN030 OVC080 12/10 Q1004 NOSIG
  • 110420Z 09012KT 9999 -RA SCT014TCU BKN030 OVC080 12/10 Q1004 NOSIG
  • 110350Z 09012KT 9999 -RA SCT014TCU BKN030 OVC080 12/10 Q1004 NOSIG
  • 110320Z 07008KT 9999 -RA SCT014TCU BKN030 OVC080 12/10 Q1004 NOSIG

TAF TAF LGKR
Valid from the 11 at 06:00 until the 12 at 06:00 UTC


110500Z 1106/1206 08010KT 9999 SCT016TCU BKN020 OVC070
PROB40
TEMPO 1106/1112 5000 RA



MET'MAP, your aeronautical weather chart ! - Copyright ORBIFLY December 2007 - Disclaimer

ORBIFLY MET'MAP TEAM :

Programming & Development : Alexandra Zaïnal
Concept & original design : Baudouin d'Aumeries
Assistance for programming : Marc-Olivier Méhu
Technical & hardware support : Manuel Goepfert

Contact : metmap@orbifly.com




SOURCES & CREDITS :

   NOAA